EVA802 VMMC-RCTP
Flight info
| Callsign | EVA802 |
|---|---|
| Flight time | 1h 33m |
| Altitude | 37000 |
| Route | CONGA V631 ENVAR M750 EXTRA/N0451F290 M750 TONGA TONGA1A |
| Aircraft | A333/H-SDE3GHIJ2J3J5M1RVWXY/LB2D1 |
Departure
| Time | 2026-04-23 19:09 |
|---|---|
| Airport | Macau International Airport (VMMC) |
Arrival
| Time | 2026-04-23 20:42 |
|---|---|
| Airport | Taiwan Taoyuan International Airport (RCTP) |
| Time | Latitude | Longitude | Altitude | Speed | Heading |
|---|---|---|---|---|---|
| 2026-04-23 18:41 | 22.15737 | 113.57570 | 32 ft | 0 kts | 303° |
| 2026-04-23 18:59 | 22.15731 | 113.57581 | 32 ft | 4 kts | 299° |
| 2026-04-23 18:59 | 22.15720 | 113.57607 | 32 ft | 4 kts | 283° |
| 2026-04-23 18:59 | 22.15718 | 113.57635 | 32 ft | 4 kts | 254° |
| 2026-04-23 18:59 | 22.15729 | 113.57654 | 32 ft | 1 kts | 208° |
| 2026-04-23 19:02 | 22.15714 | 113.57645 | 32 ft | 8 kts | 209° |
| 2026-04-23 19:02 | 22.15629 | 113.57610 | 32 ft | 17 kts | 166° |
| 2026-04-23 19:03 | 22.15539 | 113.57725 | 32 ft | 23 kts | 124° |
| 2026-04-23 19:03 | 22.15438 | 113.57889 | 32 ft | 29 kts | 123° |
| 2026-04-23 19:03 | 22.15324 | 113.58076 | 32 ft | 30 kts | 123° |
| 2026-04-23 19:03 | 22.15208 | 113.58253 | 32 ft | 29 kts | 125° |
| 2026-04-23 19:04 | 22.15100 | 113.58433 | 32 ft | 28 kts | 123° |
| 2026-04-23 19:04 | 22.14993 | 113.58609 | 32 ft | 28 kts | 123° |
| 2026-04-23 19:04 | 22.14888 | 113.58779 | 32 ft | 27 kts | 124° |
| 2026-04-23 19:04 | 22.14783 | 113.58948 | 32 ft | 26 kts | 123° |
| 2026-04-23 19:05 | 22.14655 | 113.59062 | 32 ft | 24 kts | 159° |
| 2026-04-23 19:05 | 22.14498 | 113.59121 | 32 ft | 24 kts | 161° |
| 2026-04-23 19:05 | 22.14335 | 113.59181 | 32 ft | 26 kts | 161° |
| 2026-04-23 19:05 | 22.14167 | 113.59243 | 32 ft | 25 kts | 161° |
| 2026-04-23 19:06 | 22.14002 | 113.59304 | 32 ft | 25 kts | 161° |
| 2026-04-23 19:06 | 22.13838 | 113.59364 | 32 ft | 25 kts | 161° |
| 2026-04-23 19:06 | 22.13675 | 113.59424 | 32 ft | 24 kts | 161° |
| 2026-04-23 19:06 | 22.13583 | 113.59460 | 32 ft | 11 kts | 156° |
| 2026-04-23 19:07 | 22.13562 | 113.59478 | 32 ft | 0 kts | 135° |
| 2026-04-23 19:07 | 22.13552 | 113.59490 | 32 ft | 7 kts | 134° |
| 2026-04-23 19:08 | 22.13501 | 113.59571 | 32 ft | 16 kts | 112° |
| 2026-04-23 19:08 | 22.13552 | 113.59650 | 32 ft | 13 kts | 354° |
| 2026-04-23 19:08 | 22.13579 | 113.59642 | 32 ft | 3 kts | 343° |
| 2026-04-23 19:08 | 22.13825 | 113.59554 | 35 ft | 75 kts | 341° |
| 2026-04-23 19:09 | 22.14542 | 113.59290 | 32 ft | 142 kts | 341° |
| 2026-04-23 19:09 | 22.15548 | 113.58944 | 658 ft | 152 kts | 349° |
| 2026-04-23 19:09 | 22.16590 | 113.59175 | 1472 ft | 156 kts | 25° |
| 2026-04-23 19:09 | 22.17562 | 113.59746 | 2158 ft | 163 kts | 27° |
| 2026-04-23 19:10 | 22.18637 | 113.60341 | 2371 ft | 185 kts | 24° |
| 2026-04-23 19:10 | 22.19865 | 113.60934 | 2573 ft | 206 kts | 21° |
| 2026-04-23 19:10 | 22.21235 | 113.61531 | 2996 ft | 215 kts | 20° |
| 2026-04-23 19:10 | 22.22656 | 113.62121 | 3538 ft | 223 kts | 19° |
| 2026-04-23 19:11 | 22.24150 | 113.62724 | 4134 ft | 233 kts | 18° |
| 2026-04-23 19:11 | 22.25683 | 113.63336 | 4838 ft | 236 kts | 18° |
| 2026-04-23 19:11 | 22.27224 | 113.63950 | 5514 ft | 241 kts | 18° |
| 2026-04-23 19:11 | 22.28741 | 113.64804 | 6121 ft | 253 kts | 33° |
| 2026-04-23 19:12 | 22.29711 | 113.65574 | 6327 ft | 269 kts | 37° |
| 2026-04-23 19:12 | 22.31752 | 113.67341 | 6881 ft | 291 kts | 38° |
| 2026-04-23 19:12 | 22.33309 | 113.68797 | 7577 ft | 298 kts | 46° |
| 2026-04-23 19:12 | 22.34420 | 113.70698 | 8280 ft | 303 kts | 72° |
| 2026-04-23 19:13 | 22.34966 | 113.72919 | 8959 ft | 308 kts | 78° |
| 2026-04-23 19:13 | 22.35405 | 113.75178 | 9658 ft | 313 kts | 79° |
| 2026-04-23 19:13 | 22.35834 | 113.77511 | 10351 ft | 319 kts | 79° |
| 2026-04-23 19:13 | 22.36275 | 113.79882 | 11016 ft | 325 kts | 79° |
| 2026-04-23 19:14 | 22.36744 | 113.82354 | 11330 ft | 345 kts | 78° |
| 2026-04-23 19:14 | 22.37239 | 113.84968 | 11588 ft | 365 kts | 80° |
| 2026-04-23 19:14 | 22.37386 | 113.87731 | 11809 ft | 381 kts | 99° |
| 2026-04-23 19:14 | 22.36571 | 113.90466 | 12208 ft | 385 kts | 122° |
| 2026-04-23 19:15 | 22.35123 | 113.92918 | 12763 ft | 388 kts | 128° |
| 2026-04-23 19:15 | 22.33561 | 113.95305 | 13363 ft | 392 kts | 129° |
| 2026-04-23 19:15 | 22.31968 | 113.97732 | 13962 ft | 395 kts | 129° |
| 2026-04-23 19:15 | 22.30379 | 114.00175 | 14520 ft | 399 kts | 128° |
| 2026-04-23 19:16 | 22.28791 | 114.02630 | 15034 ft | 403 kts | 128° |
| 2026-04-23 19:16 | 22.27178 | 114.05133 | 15563 ft | 407 kts | 128° |
| 2026-04-23 19:16 | 22.25551 | 114.07665 | 16085 ft | 411 kts | 128° |
| 2026-04-23 19:17 | 22.22279 | 114.12761 | 17154 ft | 417 kts | 128° |
| 2026-04-23 19:17 | 22.20611 | 114.15358 | 17634 ft | 421 kts | 128° |
| 2026-04-23 19:17 | 22.18956 | 114.17935 | 18117 ft | 424 kts | 128° |
| 2026-04-23 19:17 | 22.17269 | 114.20559 | 18583 ft | 427 kts | 128° |
| 2026-04-23 19:18 | 22.15570 | 114.23201 | 19022 ft | 431 kts | 128° |
| 2026-04-23 19:18 | 22.13848 | 114.25876 | 19447 ft | 434 kts | 128° |
| 2026-04-23 19:18 | 22.12114 | 114.28569 | 19854 ft | 437 kts | 128° |
| 2026-04-23 19:18 | 22.10374 | 114.31272 | 20266 ft | 440 kts | 128° |
| 2026-04-23 19:19 | 22.06879 | 114.36716 | 21056 ft | 446 kts | 128° |
| 2026-04-23 19:19 | 22.05123 | 114.39498 | 21470 ft | 449 kts | 128° |
| 2026-04-23 19:20 | 22.01607 | 114.45088 | 22207 ft | 454 kts | 128° |
| 2026-04-23 19:20 | 21.99826 | 114.47917 | 22573 ft | 457 kts | 128° |
| 2026-04-23 19:20 | 21.98031 | 114.50767 | 22927 ft | 460 kts | 128° |
| 2026-04-23 19:20 | 21.96204 | 114.53609 | 23284 ft | 461 kts | 130° |
| 2026-04-23 19:21 | 21.94302 | 114.56357 | 23624 ft | 463 kts | 131° |
| 2026-04-23 19:21 | 21.90374 | 114.61913 | 24245 ft | 469 kts | 131° |
| 2026-04-23 19:21 | 21.88387 | 114.64727 | 24562 ft | 471 kts | 131° |
| 2026-04-23 19:22 | 21.87069 | 114.66594 | 24785 ft | 473 kts | 131° |
| 2026-04-23 19:22 | 21.85076 | 114.69418 | 25080 ft | 475 kts | 131° |
| 2026-04-23 19:22 | 21.81061 | 114.75108 | 25697 ft | 478 kts | 131° |
| 2026-04-23 19:23 | 21.79064 | 114.77933 | 25945 ft | 481 kts | 131° |
| 2026-04-23 19:23 | 21.77102 | 114.80925 | 26228 ft | 487 kts | 124° |
| 2026-04-23 19:23 | 21.75592 | 114.84158 | 26528 ft | 493 kts | 114° |
| 2026-04-23 19:24 | 21.74332 | 114.91474 | 27094 ft | 503 kts | 92° |
| 2026-04-23 19:24 | 21.74306 | 114.95260 | 27337 ft | 506 kts | 91° |
| 2026-04-23 19:24 | 21.74343 | 115.02828 | 27847 ft | 510 kts | 90° |
| 2026-04-23 19:25 | 21.74358 | 115.10499 | 28410 ft | 513 kts | 91° |
| 2026-04-23 19:25 | 21.74354 | 115.18173 | 28870 ft | 518 kts | 91° |
| 2026-04-23 19:26 | 21.74341 | 115.25950 | 29372 ft | 521 kts | 91° |
| 2026-04-23 19:26 | 21.74334 | 115.29859 | 29570 ft | 523 kts | 91° |
| 2026-04-23 19:27 | 21.74317 | 115.37727 | 30021 ft | 527 kts | 91° |
| 2026-04-23 19:27 | 21.74283 | 115.49583 | 30660 ft | 531 kts | 91° |
| 2026-04-23 19:28 | 21.74257 | 115.57536 | 31066 ft | 534 kts | 91° |
| 2026-04-23 19:28 | 21.74227 | 115.65501 | 31567 ft | 533 kts | 91° |
| 2026-04-23 19:29 | 21.74211 | 115.69491 | 31851 ft | 533 kts | 91° |
| 2026-04-23 19:29 | 21.74178 | 115.77452 | 32456 ft | 530 kts | 91° |
| 2026-04-23 19:30 | 21.74140 | 115.85322 | 33019 ft | 528 kts | 91° |
| 2026-04-23 19:30 | 21.74120 | 115.89277 | 33286 ft | 528 kts | 91° |
| 2026-04-23 19:30 | 21.74077 | 115.97177 | 33833 ft | 526 kts | 91° |
| 2026-04-23 19:31 | 21.74054 | 116.01080 | 34092 ft | 525 kts | 91° |
| 2026-04-23 19:31 | 21.74030 | 116.05016 | 34357 ft | 524 kts | 91° |
| 2026-04-23 19:31 | 21.74004 | 116.08942 | 34613 ft | 524 kts | 91° |
| 2026-04-23 19:31 | 21.73978 | 116.12861 | 34859 ft | 523 kts | 91° |
| 2026-04-23 19:32 | 21.73952 | 116.16786 | 35082 ft | 523 kts | 92° |
| 2026-04-23 19:32 | 21.73924 | 116.20707 | 35270 ft | 524 kts | 92° |
| 2026-04-23 19:32 | 21.73896 | 116.24573 | 35531 ft | 522 kts | 92° |
| 2026-04-23 19:32 | 21.73867 | 116.28477 | 35799 ft | 521 kts | 92° |
| 2026-04-23 19:33 | 21.73837 | 116.32373 | 36026 ft | 520 kts | 92° |
| 2026-04-23 19:33 | 21.73806 | 116.36280 | 36232 ft | 520 kts | 92° |
| 2026-04-23 19:33 | 21.73741 | 116.44026 | 36607 ft | 520 kts | 92° |
| 2026-04-23 19:34 | 21.73708 | 116.47921 | 36811 ft | 520 kts | 92° |
| 2026-04-23 19:34 | 21.73673 | 116.51811 | 36904 ft | 519 kts | 92° |
| 2026-04-23 19:35 | 21.73567 | 116.63283 | 36915 ft | 507 kts | 92° |
| 2026-04-23 19:35 | 21.73492 | 116.70857 | 36918 ft | 505 kts | 92° |
| 2026-04-23 19:36 | 21.73784 | 116.78408 | 36916 ft | 507 kts | 79° |
| 2026-04-23 19:36 | 21.75855 | 116.85589 | 36907 ft | 506 kts | 69° |
| 2026-04-23 19:37 | 21.78435 | 116.92658 | 36917 ft | 506 kts | 68° |
| 2026-04-23 19:37 | 21.81060 | 116.99682 | 36906 ft | 506 kts | 68° |
| 2026-04-23 19:38 | 21.83648 | 117.06737 | 36908 ft | 506 kts | 68° |
| 2026-04-23 19:38 | 21.86186 | 117.13757 | 36913 ft | 505 kts | 69° |
| 2026-04-23 19:39 | 21.88727 | 117.20823 | 36914 ft | 505 kts | 69° |
| 2026-04-23 19:39 | 21.91251 | 117.27848 | 36906 ft | 505 kts | 69° |
| 2026-04-23 19:40 | 21.93776 | 117.34880 | 36918 ft | 505 kts | 69° |
| 2026-04-23 19:40 | 21.96314 | 117.41957 | 36912 ft | 505 kts | 69° |
| 2026-04-23 19:41 | 21.98915 | 117.49000 | 36911 ft | 507 kts | 64° |
| 2026-04-23 19:41 | 22.02328 | 117.55578 | 36914 ft | 506 kts | 59° |
| 2026-04-23 19:42 | 22.06002 | 117.62091 | 36924 ft | 508 kts | 58° |
| 2026-04-23 19:42 | 22.09702 | 117.68546 | 36915 ft | 507 kts | 58° |
| 2026-04-23 19:43 | 22.13405 | 117.75037 | 36906 ft | 506 kts | 58° |
| 2026-04-23 19:43 | 22.17086 | 117.81506 | 36913 ft | 507 kts | 58° |
| 2026-04-23 19:44 | 22.20762 | 117.88023 | 36900 ft | 507 kts | 58° |
| 2026-04-23 19:44 | 22.24408 | 117.94498 | 36912 ft | 507 kts | 58° |
| 2026-04-23 19:45 | 22.28085 | 118.01011 | 36908 ft | 507 kts | 58° |
| 2026-04-23 19:45 | 22.31837 | 118.07481 | 36908 ft | 507 kts | 57° |
| 2026-04-23 19:46 | 22.35594 | 118.13894 | 36907 ft | 507 kts | 57° |
| 2026-04-23 19:46 | 22.39369 | 118.20354 | 36906 ft | 507 kts | 57° |
| 2026-04-23 19:47 | 22.42464 | 118.25734 | 36907 ft | 508 kts | 58° |
| 2026-04-23 19:47 | 22.46756 | 118.33323 | 36905 ft | 505 kts | 58° |
| 2026-04-23 19:48 | 22.50436 | 118.39856 | 36905 ft | 509 kts | 58° |
| 2026-04-23 19:48 | 22.54116 | 118.46372 | 36923 ft | 509 kts | 58° |
| 2026-04-23 19:49 | 22.57832 | 118.52942 | 36906 ft | 510 kts | 58° |
| 2026-04-23 19:49 | 22.61542 | 118.59455 | 36911 ft | 510 kts | 57° |
| 2026-04-23 19:50 | 22.65279 | 118.66009 | 36911 ft | 511 kts | 57° |
| 2026-04-23 19:50 | 22.68996 | 118.72539 | 36908 ft | 512 kts | 57° |
| 2026-04-23 19:51 | 22.72742 | 118.79132 | 36912 ft | 512 kts | 57° |
| 2026-04-23 19:51 | 22.76450 | 118.85673 | 36909 ft | 512 kts | 57° |
| 2026-04-23 19:52 | 22.80183 | 118.92268 | 36908 ft | 512 kts | 57° |
| 2026-04-23 19:52 | 22.83917 | 118.98872 | 36903 ft | 512 kts | 57° |
| 2026-04-23 19:53 | 22.87637 | 119.05451 | 36904 ft | 513 kts | 57° |
| 2026-04-23 19:53 | 22.91350 | 119.12032 | 36906 ft | 513 kts | 58° |
| 2026-04-23 19:54 | 22.95079 | 119.18649 | 36904 ft | 513 kts | 58° |
| 2026-04-23 19:54 | 22.98810 | 119.25278 | 36909 ft | 513 kts | 58° |
| 2026-04-23 19:55 | 23.02535 | 119.31907 | 36921 ft | 513 kts | 58° |
| 2026-04-23 19:55 | 23.06239 | 119.38505 | 36924 ft | 514 kts | 58° |
| 2026-04-23 19:56 | 23.09947 | 119.45119 | 36919 ft | 514 kts | 58° |
| 2026-04-23 19:56 | 23.13680 | 119.51782 | 36912 ft | 514 kts | 58° |
| 2026-04-23 19:57 | 23.17588 | 119.58227 | 36909 ft | 511 kts | 44° |
| 2026-04-23 19:57 | 23.20273 | 119.60749 | 36917 ft | 505 kts | 32° |
| 2026-04-23 19:57 | 23.22175 | 119.62203 | 36917 ft | 505 kts | 31° |
| 2026-04-23 19:58 | 23.29009 | 119.67127 | 36909 ft | 507 kts | 30° |
| 2026-04-23 19:58 | 23.34940 | 119.71362 | 36916 ft | 508 kts | 30° |
| 2026-04-23 19:59 | 23.40851 | 119.75588 | 36919 ft | 509 kts | 29° |
| 2026-04-23 19:59 | 23.46751 | 119.79811 | 36728 ft | 509 kts | 29° |
| 2026-04-23 19:59 | 23.49716 | 119.81936 | 36099 ft | 511 kts | 29° |
| 2026-04-23 20:00 | 23.52721 | 119.84088 | 35234 ft | 517 kts | 30° |
| 2026-04-23 20:00 | 23.55710 | 119.86232 | 34410 ft | 522 kts | 30° |
| 2026-04-23 20:00 | 23.58766 | 119.88424 | 33562 ft | 527 kts | 30° |
| 2026-04-23 20:00 | 23.61844 | 119.90633 | 32687 ft | 532 kts | 30° |
| 2026-04-23 20:01 | 23.64946 | 119.92862 | 31775 ft | 537 kts | 30° |
| 2026-04-23 20:01 | 23.68091 | 119.95123 | 30820 ft | 542 kts | 30° |
| 2026-04-23 20:01 | 23.71213 | 119.97369 | 29908 ft | 546 kts | 30° |
| 2026-04-23 20:01 | 23.74382 | 119.99652 | 29329 ft | 542 kts | 30° |
| 2026-04-23 20:02 | 23.77521 | 120.01916 | 28697 ft | 538 kts | 30° |
| 2026-04-23 20:02 | 23.80646 | 120.04170 | 28042 ft | 535 kts | 30° |
| 2026-04-23 20:02 | 23.83745 | 120.06405 | 27393 ft | 531 kts | 30° |
| 2026-04-23 20:02 | 23.86784 | 120.08598 | 26738 ft | 528 kts | 30° |
| 2026-04-23 20:03 | 23.89833 | 120.10800 | 26161 ft | 523 kts | 30° |
| 2026-04-23 20:03 | 23.92855 | 120.12982 | 25546 ft | 518 kts | 30° |
| 2026-04-23 20:03 | 23.95854 | 120.15151 | 24919 ft | 513 kts | 30° |
| 2026-04-23 20:03 | 23.98814 | 120.17293 | 24447 ft | 505 kts | 30° |
| 2026-04-23 20:04 | 24.01734 | 120.19407 | 23780 ft | 501 kts | 29° |
| 2026-04-23 20:04 | 24.04599 | 120.21481 | 23246 ft | 495 kts | 30° |
| 2026-04-23 20:04 | 24.07461 | 120.23555 | 22646 ft | 490 kts | 30° |
| 2026-04-23 20:04 | 24.10285 | 120.25602 | 22026 ft | 485 kts | 30° |
| 2026-04-23 20:05 | 24.12144 | 120.26951 | 21675 ft | 480 kts | 29° |
| 2026-04-23 20:05 | 24.15826 | 120.29622 | 20880 ft | 474 kts | 30° |
| 2026-04-23 20:05 | 24.18563 | 120.31608 | 20301 ft | 468 kts | 29° |
| 2026-04-23 20:05 | 24.21273 | 120.33577 | 19673 ft | 464 kts | 29° |
| 2026-04-23 20:06 | 24.23943 | 120.35518 | 19116 ft | 458 kts | 29° |
| 2026-04-23 20:06 | 24.26579 | 120.37434 | 18485 ft | 454 kts | 29° |
| 2026-04-23 20:06 | 24.29206 | 120.39345 | 17944 ft | 447 kts | 29° |
| 2026-04-23 20:06 | 24.31758 | 120.41202 | 17311 ft | 443 kts | 29° |
| 2026-04-23 20:07 | 24.34323 | 120.43070 | 16664 ft | 440 kts | 29° |
| 2026-04-23 20:07 | 24.36872 | 120.44928 | 15988 ft | 437 kts | 30° |
| 2026-04-23 20:07 | 24.39393 | 120.46765 | 15365 ft | 433 kts | 30° |
| 2026-04-23 20:07 | 24.41872 | 120.48572 | 14752 ft | 429 kts | 30° |
| 2026-04-23 20:08 | 24.44345 | 120.50377 | 14112 ft | 425 kts | 30° |
| 2026-04-23 20:08 | 24.46798 | 120.52166 | 13507 ft | 420 kts | 30° |
| 2026-04-23 20:08 | 24.49231 | 120.53942 | 12844 ft | 418 kts | 30° |
| 2026-04-23 20:08 | 24.51639 | 120.55702 | 12274 ft | 412 kts | 30° |
| 2026-04-23 20:09 | 24.53983 | 120.57416 | 11718 ft | 406 kts | 30° |
| 2026-04-23 20:09 | 24.56324 | 120.59127 | 11213 ft | 401 kts | 30° |
| 2026-04-23 20:09 | 24.58605 | 120.60797 | 11081 ft | 384 kts | 31° |
| 2026-04-23 20:09 | 24.60778 | 120.62390 | 10986 ft | 367 kts | 31° |
| 2026-04-23 20:10 | 24.61016 | 120.62565 | 10971 ft | 366 kts | 31° |
| 2026-04-23 20:22 | 24.62004 | 120.63289 | 10900 ft | 360 kts | 31° |
| 2026-04-23 20:22 | 24.64053 | 120.64790 | 10740 ft | 347 kts | 31° |
| 2026-04-23 20:22 | 24.66025 | 120.66236 | 10625 ft | 334 kts | 31° |
| 2026-04-23 20:23 | 24.67933 | 120.67635 | 10470 ft | 323 kts | 31° |
| 2026-04-23 20:23 | 24.69810 | 120.69008 | 10068 ft | 323 kts | 31° |
| 2026-04-23 20:23 | 24.71649 | 120.70355 | 9680 ft | 321 kts | 32° |
| 2026-04-23 20:23 | 24.73493 | 120.71707 | 9404 ft | 315 kts | 32° |
| 2026-04-23 20:24 | 24.75315 | 120.73043 | 9049 ft | 313 kts | 32° |
| 2026-04-23 20:24 | 24.77121 | 120.74370 | 8677 ft | 310 kts | 32° |
| 2026-04-23 20:24 | 24.78917 | 120.75689 | 8310 ft | 308 kts | 32° |
| 2026-04-23 20:24 | 24.79463 | 120.76090 | 8221 ft | 307 kts | 32° |
| 2026-04-23 20:32 | 24.80466 | 120.76826 | 8028 ft | 305 kts | 32° |
| 2026-04-23 20:32 | 24.82219 | 120.78115 | 7566 ft | 300 kts | 32° |
| 2026-04-23 20:32 | 24.83940 | 120.79383 | 6983 ft | 294 kts | 33° |
| 2026-04-23 20:33 | 24.85594 | 120.80602 | 6603 ft | 282 kts | 33° |
| 2026-04-23 20:33 | 24.87197 | 120.81781 | 6271 ft | 270 kts | 32° |
| 2026-04-23 20:33 | 24.88736 | 120.82915 | 5945 ft | 261 kts | 32° |
| 2026-04-23 20:33 | 24.90223 | 120.84074 | 5626 ft | 262 kts | 39° |
| 2026-04-23 20:34 | 24.91330 | 120.85570 | 5443 ft | 250 kts | 63° |
| 2026-04-23 20:34 | 24.91779 | 120.87363 | 5356 ft | 239 kts | 85° |
| 2026-04-23 20:34 | 24.91783 | 120.89176 | 5245 ft | 235 kts | 92° |
| 2026-04-23 20:34 | 24.91694 | 120.90969 | 5150 ft | 229 kts | 93° |
| 2026-04-23 20:35 | 24.91598 | 120.92677 | 5047 ft | 218 kts | 92° |
| 2026-04-23 20:35 | 24.91511 | 120.94297 | 4922 ft | 211 kts | 92° |
| 2026-04-23 20:35 | 24.91428 | 120.95920 | 4632 ft | 212 kts | 92° |
| 2026-04-23 20:35 | 24.91350 | 120.97509 | 4378 ft | 206 kts | 91° |
| 2026-04-23 20:36 | 24.91274 | 120.99063 | 4151 ft | 201 kts | 91° |
| 2026-04-23 20:36 | 24.91309 | 121.00602 | 3973 ft | 204 kts | 74° |
| 2026-04-23 20:36 | 24.91935 | 121.02030 | 3676 ft | 210 kts | 53° |
| 2026-04-23 20:36 | 24.92839 | 121.03283 | 3418 ft | 207 kts | 48° |
| 2026-04-23 20:37 | 24.93773 | 121.04465 | 3234 ft | 200 kts | 47° |
| 2026-04-23 20:37 | 24.94673 | 121.05598 | 3049 ft | 194 kts | 47° |
| 2026-04-23 20:37 | 24.95540 | 121.06701 | 2844 ft | 189 kts | 47° |
| 2026-04-23 20:37 | 24.96368 | 121.07764 | 2670 ft | 181 kts | 48° |
| 2026-04-23 20:38 | 24.97192 | 121.08817 | 2364 ft | 181 kts | 49° |
| 2026-04-23 20:38 | 24.98010 | 121.09859 | 2142 ft | 179 kts | 49° |
| 2026-04-23 20:38 | 24.98830 | 121.10895 | 1947 ft | 179 kts | 49° |
| 2026-04-23 20:38 | 24.99651 | 121.11930 | 1742 ft | 179 kts | 49° |
| 2026-04-23 20:39 | 25.00472 | 121.12967 | 1621 ft | 180 kts | 49° |
| 2026-04-23 20:39 | 25.01286 | 121.13999 | 1586 ft | 178 kts | 49° |
| 2026-04-23 20:39 | 25.02047 | 121.14965 | 1589 ft | 154 kts | 50° |
| 2026-04-23 20:39 | 25.02714 | 121.15813 | 1519 ft | 141 kts | 49° |
| 2026-04-23 20:40 | 25.03345 | 121.16613 | 1336 ft | 138 kts | 49° |
| 2026-04-23 20:40 | 25.03977 | 121.17411 | 1140 ft | 138 kts | 50° |
| 2026-04-23 20:40 | 25.04614 | 121.18203 | 932 ft | 138 kts | 49° |
| 2026-04-23 20:40 | 25.05248 | 121.19004 | 729 ft | 138 kts | 50° |
| 2026-04-23 20:41 | 25.05860 | 121.19795 | 596 ft | 138 kts | 50° |
| 2026-04-23 20:41 | 25.06494 | 121.20598 | 392 ft | 138 kts | 49° |
| 2026-04-23 20:41 | 25.07130 | 121.21391 | 210 ft | 138 kts | 49° |
| 2026-04-23 20:41 | 25.07744 | 121.22173 | 109 ft | 128 kts | 49° |
| 2026-04-23 20:42 | 25.08202 | 121.22758 | 103 ft | 62 kts | 49° |
| 2026-04-23 20:42 | 25.08387 | 121.23011 | 104 ft | 34 kts | 61° |
| 2026-04-23 20:42 | 25.08446 | 121.23210 | 104 ft | 16 kts | 83° |
| 2026-04-23 20:42 | 25.08466 | 121.23328 | 105 ft | 13 kts | 79° |
| 2026-04-23 20:43 | 25.08472 | 121.23362 | 105 ft | 0 kts | 78° |
| 2026-04-23 20:44 | 25.08473 | 121.23365 | 105 ft | 2 kts | 78° |
| 2026-04-23 20:44 | 25.08488 | 121.23429 | 105 ft | 15 kts | 67° |
| 2026-04-23 20:44 | 25.08564 | 121.23546 | 105 ft | 20 kts | 52° |
| 2026-04-23 20:44 | 25.08661 | 121.23665 | 105 ft | 22 kts | 49° |
| 2026-04-23 20:45 | 25.08730 | 121.23769 | 104 ft | 14 kts | 79° |
| 2026-04-23 20:45 | 25.08685 | 121.23862 | 105 ft | 14 kts | 135° |
| 2026-04-23 20:45 | 25.08600 | 121.23944 | 105 ft | 18 kts | 139° |
| 2026-04-23 20:45 | 25.08495 | 121.24044 | 105 ft | 22 kts | 140° |
| 2026-04-23 20:46 | 25.08371 | 121.24159 | 104 ft | 25 kts | 140° |
| 2026-04-23 20:46 | 25.08246 | 121.24280 | 105 ft | 21 kts | 139° |
| 2026-04-23 20:46 | 25.08137 | 121.24315 | 104 ft | 17 kts | 215° |
| 2026-04-23 20:46 | 25.08050 | 121.24211 | 104 ft | 20 kts | 229° |
| 2026-04-23 20:47 | 25.07950 | 121.24082 | 104 ft | 24 kts | 229° |
| 2026-04-23 20:47 | 25.07843 | 121.23946 | 104 ft | 24 kts | 229° |
| 2026-04-23 20:47 | 25.07729 | 121.23800 | 104 ft | 26 kts | 230° |
| 2026-04-23 20:47 | 25.07611 | 121.23647 | 104 ft | 27 kts | 230° |
| 2026-04-23 20:48 | 25.07508 | 121.23518 | 104 ft | 10 kts | 227° |
| 2026-04-23 20:48 | 25.07455 | 121.23448 | 104 ft | 11 kts | 230° |
| 2026-04-23 20:48 | 25.07445 | 121.23392 | 104 ft | 7 kts | 297° |
| 2026-04-23 20:48 | 25.07477 | 121.23352 | 105 ft | 4 kts | 318° |
| 2026-04-23 20:49 | 25.07486 | 121.23343 | 105 ft | 2 kts | 318° |
| 2026-04-23 20:49 | 25.07497 | 121.23332 | 105 ft | 2 kts | 319° |
| 2026-04-23 20:49 | 25.07508 | 121.23323 | 105 ft | 2 kts | 319° |
| 2026-04-23 20:49 | 25.07512 | 121.23319 | 105 ft | 0 kts | 319° |